Decoded Metar for PAOO (TOKSOOK BAY in AK, USA) (IATA:N/A) | Meteo·Mobile Aviation Weather
aviador You're here:

PAOO Decoded Metar

TOKSOOK BAY in AK, USA
Report Time2018-09-19 21:56:00
UTC Time2018-09-19 22:12:24
Flight Rules vfr VFR
Wind220° at 11 kt
W.Decomp.*RWY 16: 7.4 kt HW 8.2 kt RCW
W.Rank220° ranks 36
Current wind is above 220° avg. (9.4)
Visibility9999 m
Phenomena:N/A
Clouds:Scattered 012 Hf
Overcast 034 Hf
Expected CloudBase > 800 ft AGL from Temp-Dew spread
Ceiling3,400 ft
Temp11°C (ISA -4)
Dew Point09°C (88% RH)
AAT6.8°C
QNH1024 hPa
Density Alt-620 ft
Elevation59 ft
Report Wrong Elevation
Raw Report
PAOO 192156Z AUTO 22011KT 10SM SCT012 OVC034 11/09 A3023 RMK AO2
SLP249 T01110089=

Extra information for PAOO:More info

Metar Taf Metar & Taf Last 4 Metars F.Rules Stats Wind Profile Meteogram Temp Stats Airport Information Weather charts Add Link Nearby VenuesMetar ALERT Operation Metar Decoded Social comments

AIRNAV info for PAOO